Time;durP1;ratioP1;P1;durP2;ratioP2;P2;SDS_P1;SDS_P2;PMS_P1;PMS_P2;Temp;Humidity;BMP_temperature;BMP_pressure;BME280_temperature;BME280_humidity;BME280_pressure;Samples;Min_cycle;Max_cycle;Signal;HPM_P1;HPM_P2
2022/02/21 00:01:24;;;;;;;7.75;2.03;;;9.10;99.90;;;;;;6150094;23;20012;-83
2022/02/21 00:04:12;;;;;;;4.70;2.00;;;9.20;99.90;;;;;;6149098;23;20359;-84
2022/02/21 00:06:38;;;;;;;4.85;1.83;;;9.20;99.90;;;;;;6174512;23;20013;-84
2022/02/21 00:09:03;;;;;;;6.97;1.80;;;9.30;99.90;;;;;;6150945;23;20014;-84
2022/02/21 00:11:28;;;;;;;6.70;1.63;;;9.30;99.90;;;;;;6149051;23;20380;-84
2022/02/21 00:13:57;;;;;;;5.00;1.77;;;9.20;99.90;;;;;;6149771;23;20006;-84
2022/02/21 00:16:23;;;;;;;5.25;1.75;;;9.20;99.90;;;;;;6149209;23;20009;-84
2022/02/21 00:18:52;;;;;;;4.18;1.48;;;9.20;99.90;;;;;;6151198;23;20002;-85
2022/02/21 00:21:21;;;;;;;5.32;1.67;;;9.20;99.90;;;;;;6150003;23;20402;-85
2022/02/21 00:23:46;;;;;;;2.45;1.25;;;9.20;99.90;;;;;;6150391;23;20012;-84
2022/02/21 00:26:15;;;;;;;2.70;1.70;;;9.20;99.90;;;;;;6150046;23;20010;-85
2022/02/21 00:28:44;;;;;;;8.00;1.80;;;9.20;99.90;;;;;;6149274;23;20006;-85
2022/02/21 00:31:10;;;;;;;7.50;1.75;;;9.30;99.90;;;;;;6151218;23;20013;-82
2022/02/21 00:33:38;;;;;;;10.63;1.45;;;9.40;99.90;;;;;;6149411;23;20010;-84
2022/02/21 00:36:04;;;;;;;7.75;1.45;;;9.40;99.90;;;;;;6148154;23;20006;-83
2022/02/21 00:38:33;;;;;;;3.13;1.20;;;9.50;99.90;;;;;;6149256;23;19994;-83
2022/02/21 00:41:00;;;;;;;3.22;1.10;;;9.50;99.90;;;;;;6148248;23;20013;-82
2022/02/21 00:43:26;;;;;;;3.28;1.17;;;9.50;99.90;;;;;;6149058;23;20337;-82
2022/02/21 00:45:52;;;;;;;3.35;1.40;;;9.50;99.90;;;;;;6149446;23;20005;-83
2022/02/21 00:48:18;;;;;;;5.25;1.50;;;9.50;99.90;;;;;;6149628;23;20040;-84
2022/02/21 00:50:44;;;;;;;3.03;1.05;;;9.60;99.90;;;;;;6150184;23;20071;-82
2022/02/21 00:53:09;;;;;;;3.55;1.17;;;9.60;99.90;;;;;;6149823;23;20028;-83
2022/02/21 00:55:35;;;;;;;4.93;1.30;;;9.60;99.90;;;;;;6149635;23;20429;-83
2022/02/21 00:58:04;;;;;;;2.42;1.15;;;9.50;99.90;;;;;;6147629;23;20029;-83
2022/02/21 01:00:30;;;;;;;3.50;1.05;;;9.40;99.90;;;;;;6148205;23;20001;-83
2022/02/21 01:02:56;;;;;;;1.42;0.70;;;9.20;99.90;;;;;;6148350;23;20005;-82
2022/02/21 01:05:23;;;;;;;1.10;0.40;;;9.00;99.90;;;;;;6149795;23;20012;-81
2022/02/21 01:07:49;;;;;;;1.48;0.73;;;8.70;99.90;;;;;;6147197;23;20089;-82
2022/02/21 01:10:15;;;;;;;1.17;0.45;;;8.50;99.90;;;;;;6148201;23;20449;-83
2022/02/21 01:12:40;;;;;;;0.95;0.50;;;8.30;99.90;;;;;;6147928;23;20005;-83
2022/02/21 01:15:09;;;;;;;1.42;0.50;;;8.10;99.90;;;;;;6146823;23;20437;-83
2022/02/21 01:17:34;;;;;;;3.90;0.73;;;7.80;99.90;;;;;;6147445;23;20009;-83
2022/02/21 01:20:03;;;;;;;1.10;0.60;;;7.70;99.90;;;;;;6148910;23;20005;-83
2022/02/21 01:22:29;;;;;;;1.25;0.43;;;7.50;99.90;;;;;;6151109;23;20017;-83
2022/02/21 01:24:55;;;;;;;2.97;0.68;;;7.30;99.90;;;;;;6148300;23;20457;-82
2022/02/21 01:27:20;;;;;;;1.45;0.60;;;7.30;99.90;;;;;;6148602;23;20033;-80
2022/02/21 01:29:46;;;;;;;0.45;0.30;;;7.10;99.90;;;;;;6147233;23;20013;-81
2022/02/21 01:32:12;;;;;;;1.95;0.70;;;7.10;99.90;;;;;;6146671;23;20006;-82
2022/02/21 01:34:38;;;;;;;1.30;0.35;;;7.00;99.90;;;;;;6147535;23;20033;-82
2022/02/21 01:37:10;;;;;;;2.17;0.47;;;6.90;99.90;;;;;;6148551;23;20342;-82
2022/02/21 01:39:36;;;;;;;2.15;0.47;;;6.90;99.90;;;;;;6150051;23;20001;-82
2022/02/21 01:42:08;;;;;;;1.08;0.40;;;6.80;99.90;;;;;;6151206;23;20085;-82
2022/02/21 01:44:35;;;;;;;1.70;0.60;;;6.80;99.90;;;;;;6151069;23;20013;-82
2022/02/21 01:47:06;;;;;;;2.03;0.70;;;6.80;99.90;;;;;;6149119;23;20523;-81
2022/02/21 01:49:31;;;;;;;2.85;0.85;;;6.70;99.90;;;;;;6151036;23;20422;-81
2022/02/21 01:51:57;;;;;;;1.92;0.70;;;6.70;99.90;;;;;;6149191;23;20005;-82
2022/02/21 01:54:25;;;;;;;2.05;0.63;;;6.70;99.90;;;;;;6150407;23;20001;-82
2022/02/21 01:56:53;;;;;;;1.50;0.60;;;6.70;99.90;;;;;;6148390;23;20479;-81
2022/02/21 01:59:19;;;;;;;1.75;0.50;;;6.70;99.90;;;;;;6150758;23;20008;-79
2022/02/21 02:01:48;;;;;;;1.80;0.93;;;6.70;99.90;;;;;;6148893;23;20008;-81
2022/02/21 02:04:13;;;;;;;5.35;0.68;;;6.60;99.90;;;;;;6149013;23;20108;-81
2022/02/21 02:06:40;;;;;;;2.05;0.57;;;6.60;99.90;;;;;;6150168;23;20009;-81
2022/02/21 02:09:07;;;;;;;0.43;0.43;;;6.70;99.90;;;;;;6148630;23;20073;-82
2022/02/21 02:11:36;;;;;;;2.05;0.50;;;6.70;99.90;;;;;;6149229;23;20327;-82
2022/02/21 02:14:05;;;;;;;0.85;0.70;;;6.70;99.90;;;;;;6149391;23;20002;-82
2022/02/21 02:16:31;;;;;;;0.90;0.40;;;6.70;99.90;;;;;;6150567;23;20001;-82
2022/02/21 02:19:02;;;;;;;1.45;0.50;;;6.80;99.90;;;;;;6151037;23;20021;-82
2022/02/21 02:21:39;;;;;;;0.90;0.50;;;6.70;99.90;;;;;;6149925;23;20015;-83
2022/02/21 02:24:08;;;;;;;1.08;0.43;;;6.70;99.90;;;;;;6149528;23;20304;-83
2022/02/21 02:26:43;;;;;;;0.50;0.50;;;6.80;99.90;;;;;;6150537;23;20463;-82
2022/02/21 02:29:17;;;;;;;1.05;0.52;;;6.80;99.90;;;;;;6148521;23;20009;-81
2022/02/21 02:31:43;;;;;;;1.15;0.50;;;6.70;99.90;;;;;;6148723;23;20005;-82
2022/02/21 02:34:12;;;;;;;2.67;0.80;;;6.70;99.90;;;;;;6149083;23;20309;-82
2022/02/21 02:36:40;;;;;;;1.88;0.80;;;6.60;99.90;;;;;;6149007;23;20055;-81
2022/02/21 02:39:06;;;;;;;2.65;0.60;;;6.60;99.90;;;;;;6148687;23;20033;-81
2022/02/21 02:41:32;;;;;;;1.63;0.80;;;6.60;99.90;;;;;;6150647;23;20052;-81
2022/02/21 02:44:00;;;;;;;2.65;0.60;;;6.60;99.90;;;;;;6150057;23;20008;-81
2022/02/21 02:46:26;;;;;;;0.98;0.57;;;6.50;99.90;;;;;;6150680;23;20005;-80
2022/02/21 02:48:52;;;;;;;2.70;0.80;;;6.50;99.90;;;;;;6147982;23;20024;-81
2022/02/21 02:51:17;;;;;;;2.95;0.65;;;6.50;99.90;;;;;;6148455;23;20088;-82
2022/02/21 02:53:43;;;;;;;1.10;0.45;;;6.40;99.90;;;;;;6148750;23;20495;-82
2022/02/21 02:56:08;;;;;;;1.42;0.50;;;6.50;99.90;;;;;;6148666;23;20032;-81
2022/02/21 02:58:34;;;;;;;0.73;0.50;;;6.40;99.90;;;;;;6149988;23;20017;-81
2022/02/21 03:01:00;;;;;;;1.85;0.60;;;6.40;99.90;;;;;;6149588;23;20001;-81
2022/02/21 03:03:26;;;;;;;3.28;0.80;;;6.30;99.90;;;;;;6148167;23;20001;-81
2022/02/21 03:05:58;;;;;;;3.90;0.60;;;6.30;99.90;;;;;;6148914;23;20085;-84
2022/02/21 03:08:24;;;;;;;5.07;0.70;;;6.20;99.90;;;;;;6147888;23;20146;-84
2022/02/21 03:10:52;;;;;;;2.15;0.80;;;6.20;99.90;;;;;;6148906;23;20063;-82
2022/02/21 03:13:21;;;;;;;3.75;0.77;;;6.10;99.90;;;;;;6150126;23;20473;-83
2022/02/21 03:15:46;;;;;;;6.38;1.42;;;6.10;99.90;;;;;;6147640;23;20087;-83
2022/02/21 03:18:12;;;;;;;7.07;1.50;;;6.00;99.90;;;;;;6150373;23;20005;-83
2022/02/21 03:20:43;;;;;;;8.23;1.20;;;6.00;99.90;;;;;;6148115;23;20677;-83
2022/02/21 03:23:12;;;;;;;6.35;1.30;;;6.00;99.90;;;;;;6153467;23;20373;-84
2022/02/21 03:25:37;;;;;;;6.55;2.22;;;5.90;99.90;;;;;;6151951;23;20383;-85
2022/02/21 03:28:06;;;;;;;11.35;1.38;;;5.90;99.90;;;;;;6152972;23;20009;-83
2022/02/21 03:30:34;;;;;;;4.80;1.38;;;5.80;99.90;;;;;;6153387;23;20033;-84
2022/02/21 03:33:04;;;;;;;7.43;1.83;;;5.70;99.90;;;;;;6151431;23;20041;-84
2022/02/21 03:35:30;;;;;;;8.68;1.65;;;5.70;99.90;;;;;;6151336;23;19997;-84
2022/02/21 03:37:55;;;;;;;14.18;1.90;;;5.60;99.90;;;;;;6150589;23;20005;-84
2022/02/21 03:40:21;;;;;;;8.80;1.88;;;5.60;99.90;;;;;;6150737;23;20017;-85
2022/02/21 03:42:47;;;;;;;3.38;1.40;;;5.60;99.90;;;;;;6150530;23;20452;-83
2022/02/21 03:45:13;;;;;;;8.48;1.73;;;5.70;99.90;;;;;;6147873;23;20016;-83
2022/02/21 03:47:44;;;;;;;6.70;1.40;;;5.60;99.90;;;;;;6148026;23;20005;-83
2022/02/21 03:50:13;;;;;;;3.63;1.10;;;5.70;99.90;;;;;;6148774;23;20010;-81
2022/02/21 03:52:39;;;;;;;2.22;1.00;;;5.70;99.90;;;;;;6148246;23;20009;-82
2022/02/21 03:55:05;;;;;;;3.58;0.88;;;5.70;99.90;;;;;;6148004;23;20012;-82
2022/02/21 03:57:31;;;;;;;2.45;1.08;;;5.60;99.90;;;;;;6150427;23;20001;-82
2022/02/21 03:59:57;;;;;;;5.85;1.10;;;5.50;99.90;;;;;;6149983;23;20088;-82
2022/02/21 04:02:23;;;;;;;4.78;1.20;;;5.40;99.90;;;;;;6148683;23;20231;-82
2022/02/21 04:04:48;;;;;;;10.25;1.10;;;5.40;99.90;;;;;;6148574;23;20029;-83
2022/02/21 04:07:17;;;;;;;7.93;1.55;;;5.30;99.90;;;;;;6151916;23;20024;-82
2022/02/21 04:09:43;;;;;;;5.03;1.38;;;5.20;99.90;;;;;;6153793;23;20020;-82
2022/02/21 04:12:09;;;;;;;5.65;1.60;;;5.20;99.90;;;;;;6157221;23;20437;-83
2022/02/21 04:14:35;;;;;;;7.78;1.80;;;5.20;99.90;;;;;;6150616;23;20053;-82
2022/02/21 04:17:01;;;;;;;5.65;1.42;;;5.20;99.90;;;;;;6150175;23;20006;-82
2022/02/21 04:19:27;;;;;;;6.30;1.92;;;5.10;99.90;;;;;;6151502;23;20001;-82
2022/02/21 04:21:52;;;;;;;13.13;2.47;;;5.10;99.90;;;;;;6150536;23;20005;-82
2022/02/21 04:24:18;;;;;;;11.07;2.30;;;5.20;99.90;;;;;;6150932;23;20037;-82
2022/02/21 04:26:43;;;;;;;12.35;2.38;;;5.10;99.90;;;;;;6152403;23;20237;-82
2022/02/21 04:29:11;;;;;;;13.02;3.45;;;5.00;99.90;;;;;;6150809;23;20207;-81
2022/02/21 04:31:37;;;;;;;14.85;2.75;;;5.10;99.90;;;;;;6150362;23;20001;-82
2022/02/21 04:34:03;;;;;;;8.90;2.45;;;5.10;99.90;;;;;;6151650;23;20424;-81
2022/02/21 04:36:30;;;;;;;18.65;2.50;;;5.10;99.90;;;;;;6153842;23;20001;-82
2022/02/21 04:38:56;;;;;;;12.43;2.80;;;5.10;99.90;;;;;;6153847;23;20349;-83
2022/02/21 04:41:22;;;;;;;14.30;2.78;;;5.00;99.90;;;;;;6153497;23;20013;-82
2022/02/21 04:43:47;;;;;;;19.42;3.00;;;5.00;99.90;;;;;;6153177;23;20005;-81
2022/02/21 04:46:13;;;;;;;14.27;2.88;;;5.10;99.90;;;;;;6152164;23;20013;-81
2022/02/21 04:48:38;;;;;;;12.98;2.50;;;5.00;99.90;;;;;;6157753;23;20097;-82
2022/02/21 04:51:05;;;;;;;20.55;3.00;;;4.90;99.90;;;;;;6155630;23;20012;-81
2022/02/21 04:53:30;;;;;;;10.43;2.55;;;4.90;99.90;;;;;;6155003;23;20010;-81
2022/02/21 04:55:56;;;;;;;23.02;3.70;;;4.90;99.90;;;;;;6151523;23;19997;-81
2022/02/21 04:58:25;;;;;;;16.50;3.22;;;5.00;99.90;;;;;;6148047;23;20010;-81
2022/02/21 05:00:51;;;;;;;20.05;4.05;;;5.00;99.90;;;;;;6148997;23;20004;-81
2022/02/21 05:03:19;;;;;;;11.00;2.85;;;5.00;99.90;;;;;;6150057;23;20005;-82
2022/02/21 05:05:45;;;;;;;10.48;3.47;;;5.10;99.90;;;;;;6150934;23;20001;-81
2022/02/21 05:08:16;;;;;;;15.48;3.10;;;5.10;99.90;;;;;;6152448;23;20369;-83
2022/02/21 05:10:42;;;;;;;;;;;5.20;99.90;;;;;;6153055;23;20025;-82
2022/02/21 05:13:07;;;;;;;15.93;3.28;;;5.20;99.90;;;;;;6154575;23;19908;-82
2022/02/21 05:15:33;;;;;;;19.58;3.75;;;5.20;99.90;;;;;;6156625;23;20017;-83
2022/02/21 05:17:59;;;;;;;18.52;3.28;;;5.20;99.90;;;;;;6161117;23;20005;-83
2022/02/21 05:20:24;;;;;;;9.48;2.88;;;5.20;99.90;;;;;;6161371;23;20306;-84
2022/02/21 05:22:53;;;;;;;16.48;3.65;;;5.20;99.90;;;;;;6156727;23;20016;-83
2022/02/21 05:25:18;;;;;;;14.25;3.20;;;5.30;99.90;;;;;;6155466;23;20009;-83
2022/02/21 05:27:46;;;;;;;17.25;2.83;;;5.30;99.90;;;;;;6156126;23;20009;-84
2022/02/21 05:30:15;;;;;;;16.42;3.05;;;5.20;99.90;;;;;;6153925;23;20005;-82
2022/02/21 05:32:42;;;;;;;10.38;2.83;;;5.10;99.90;;;;;;6151316;23;20209;-82
2022/02/21 05:35:11;;;;;;;13.82;3.60;;;5.20;99.90;;;;;;6151244;23;20418;-82
2022/02/21 05:37:37;;;;;;;21.92;4.32;;;5.10;99.90;;;;;;6151298;23;20491;-82
2022/02/21 05:40:04;;;;;;;17.88;3.42;;;5.10;99.90;;;;;;6150841;23;20005;-82
2022/02/21 05:42:30;;;;;;;15.05;2.65;;;5.10;99.90;;;;;;6152085;23;20009;-83
2022/02/21 05:44:56;;;;;;;13.77;3.65;;;5.10;99.90;;;;;;6150873;23;20394;-82
2022/02/21 05:47:22;;;;;;;15.40;3.10;;;5.10;99.90;;;;;;6150861;23;20009;-83
2022/02/21 05:49:48;;;;;;;16.02;3.78;;;5.10;99.90;;;;;;6149365;23;20384;-82
2022/02/21 05:52:13;;;;;;;8.35;2.63;;;5.10;99.90;;;;;;6149487;23;20005;-82
2022/02/21 05:54:39;;;;;;;14.02;2.92;;;5.10;99.90;;;;;;6150630;23;20012;-81
2022/02/21 05:57:05;;;;;;;14.98;3.47;;;5.10;99.90;;;;;;6150446;23;20329;-82
2022/02/21 05:59:32;;;;;;;14.73;2.75;;;5.20;99.90;;;;;;6149116;23;20404;-82
2022/02/21 06:01:58;;;;;;;22.80;3.05;;;5.20;99.90;;;;;;6150280;23;20028;-83
2022/02/21 06:04:24;;;;;;;14.63;3.85;;;5.20;99.90;;;;;;6149833;23;20033;-83
2022/02/21 06:06:49;;;;;;;16.98;3.05;;;5.10;99.90;;;;;;6152907;23;20009;-83
2022/02/21 06:09:15;;;;;;;11.93;2.38;;;5.00;99.90;;;;;;6149403;23;20009;-80
2022/02/21 06:11:41;;;;;;;9.00;2.33;;;4.90;99.90;;;;;;6151105;23;20452;-79
2022/02/21 06:14:06;;;;;;;6.43;1.63;;;4.80;99.90;;;;;;6150045;23;20002;-80
2022/02/21 06:16:32;;;;;;;7.65;2.10;;;4.70;99.90;;;;;;6150948;23;20001;-78
2022/02/21 06:18:57;;;;;;;11.38;2.35;;;4.70;99.90;;;;;;6148978;23;20032;-78
2022/02/21 06:21:23;;;;;;;3.65;1.80;;;4.50;99.90;;;;;;6148458;23;20032;-78
2022/02/21 06:23:52;;;;;;;14.70;1.83;;;4.50;99.90;;;;;;6147324;23;20006;-79
2022/02/21 06:26:20;;;;;;;8.88;2.38;;;4.50;99.90;;;;;;6145247;23;20464;-74
2022/02/21 06:28:46;;;;;;;7.00;2.38;;;4.40;99.90;;;;;;6152223;23;20621;-74
2022/02/21 06:31:12;;;;;;;16.88;3.03;;;4.50;99.90;;;;;;6152089;23;20081;-74
2022/02/21 06:33:39;;;;;;;14.80;2.97;;;4.40;99.90;;;;;;6152217;23;20005;-74
2022/02/21 06:36:05;;;;;;;15.45;3.05;;;4.40;99.90;;;;;;6150883;23;20005;-74
2022/02/21 06:38:32;;;;;;;17.38;2.30;;;4.30;99.90;;;;;;6153042;23;20005;-74
2022/02/21 06:40:59;;;;;;;9.80;2.55;;;4.20;99.90;;;;;;6153989;23;20045;-74
2022/02/21 06:43:25;;;;;;;11.77;3.42;;;4.20;99.90;;;;;;6152881;23;20033;-76
2022/02/21 06:45:50;;;;;;;12.85;3.05;;;4.20;99.90;;;;;;6151206;23;20009;-74
2022/02/21 06:48:16;;;;;;;10.68;3.15;;;4.20;99.90;;;;;;6151958;23;19998;-74
2022/02/21 06:50:42;;;;;;;14.10;2.30;;;4.20;99.90;;;;;;6154132;23;20567;-74
2022/02/21 06:53:07;;;;;;;21.10;4.63;;;4.20;99.90;;;;;;6153814;23;20002;-74
2022/02/21 06:55:33;;;;;;;10.80;2.45;;;4.10;99.90;;;;;;6151521;23;20005;-74
2022/02/21 06:57:59;;;;;;;14.13;2.50;;;4.10;99.90;;;;;;6151841;23;20006;-74
2022/02/21 07:00:24;;;;;;;15.90;2.40;;;4.20;99.90;;;;;;6151370;23;20096;-74
2022/02/21 07:02:51;;;;;;;8.00;2.30;;;4.10;99.90;;;;;;6150490;23;20009;-74
2022/02/21 07:05:17;;;;;;;9.68;2.25;;;4.20;99.90;;;;;;6151196;23;20009;-74
2022/02/21 07:07:44;;;;;;;13.15;3.58;;;4.20;99.90;;;;;;6152535;23;20076;-74
2022/02/21 07:10:13;;;;;;;13.32;2.85;;;4.20;99.90;;;;;;6151358;23;20010;-80
2022/02/21 07:12:38;;;;;;;4.60;1.67;;;4.30;99.90;;;;;;6152912;23;20002;-79
2022/02/21 07:15:08;;;;;;;10.07;2.10;;;4.30;99.90;;;;;;6154807;23;20077;-80
2022/02/21 07:17:48;;;;;;;;;;;;;;;;;;;;;
2022/02/21 07:20:15;;;;;;;8.30;1.80;;;4.10;99.90;;;;;;6155296;23;20309;-79
2022/02/21 07:22:42;;;;;;;11.07;2.10;;;4.10;99.90;;;;;;6155161;23;19998;-79
2022/02/21 07:25:09;;;;;;;6.82;1.95;;;4.10;99.90;;;;;;6154683;23;20010;-79
2022/02/21 07:27:44;;;;;;;12.57;3.03;;;4.10;99.90;;;;;;6153066;23;20009;-79
2022/02/21 07:30:12;;;;;;;12.98;2.78;;;4.10;99.90;;;;;;6154711;23;20006;-79
2022/02/21 07:32:42;;;;;;;8.45;2.08;;;4.10;99.90;;;;;;6152303;23;20075;-74
2022/02/21 07:35:10;;;;;;;17.45;3.20;;;4.20;99.90;;;;;;6152726;23;20365;-76
2022/02/21 07:37:56;;;;;;;10.45;2.50;;;4.20;99.90;;;;;;6151484;23;20056;-73
2022/02/21 07:40:22;;;;;;;13.55;2.58;;;4.30;99.90;;;;;;6153863;23;19997;-74
2022/02/21 07:42:50;;;;;;;9.45;2.05;;;4.40;99.90;;;;;;6153183;23;20049;-75
2022/02/21 07:45:19;;;;;;;10.38;2.35;;;4.40;99.90;;;;;;6151641;23;20010;-74
2022/02/21 07:47:47;;;;;;;16.30;2.92;;;4.50;99.90;;;;;;6150151;23;20005;-74
2022/02/21 07:50:14;;;;;;;10.30;2.67;;;4.60;99.90;;;;;;6151795;23;20079;-75
2022/02/21 07:52:39;;;;;;;12.40;2.80;;;4.70;99.90;;;;;;6151521;23;20468;-74
2022/02/21 07:55:05;;;;;;;15.07;2.33;;;4.70;99.90;;;;;;6151978;23;20330;-74
2022/02/21 07:57:34;;;;;;;11.68;3.13;;;4.70;99.90;;;;;;6150798;23;20005;-76
2022/02/21 07:59:59;;;;;;;19.27;3.85;;;4.70;99.90;;;;;;6150988;23;20052;-75
2022/02/21 08:02:25;;;;;;;12.35;3.08;;;4.80;99.90;;;;;;6150747;23;20006;-77
2022/02/21 08:04:54;;;;;;;21.08;4.57;;;4.80;99.90;;;;;;6155157;23;20373;-82
2022/02/21 08:07:22;;;;;;;10.48;1.95;;;4.80;99.90;;;;;;6155742;23;20002;-84
2022/02/21 08:09:48;;;;;;;7.68;2.13;;;4.90;99.90;;;;;;6156661;23;20147;-84
2022/02/21 08:12:14;;;;;;;16.38;3.67;;;4.90;99.90;;;;;;6155589;23;20009;-84
2022/02/21 08:14:39;;;;;;;10.30;2.53;;;4.90;99.90;;;;;;6156714;23;20009;-84
2022/02/21 08:17:05;;;;;;;14.15;2.67;;;5.00;99.90;;;;;;6155722;23;20005;-83
2022/02/21 08:19:30;;;;;;;12.38;2.90;;;5.00;99.90;;;;;;6157707;23;20001;-83
2022/02/21 08:21:56;;;;;;;9.05;1.92;;;5.00;99.90;;;;;;6159296;23;20041;-84
2022/02/21 08:24:25;;;;;;;12.10;2.67;;;5.00;99.90;;;;;;6157879;23;20001;-83
2022/02/21 08:26:53;;;;;;;13.73;2.53;;;5.10;99.90;;;;;;6156839;23;20048;-83
2022/02/21 08:29:21;;;;;;;9.55;2.70;;;5.20;99.90;;;;;;6154036;23;20012;-77
2022/02/21 08:31:48;;;;;;;17.92;2.58;;;5.40;99.90;;;;;;6152689;23;20085;-77
2022/02/21 08:34:16;;;;;;;10.57;2.75;;;5.50;99.90;;;;;;6153876;23;20020;-77
2022/02/21 08:36:42;;;;;;;12.20;2.50;;;5.60;99.90;;;;;;6153201;23;20084;-77
2022/02/21 08:39:09;;;;;;;11.93;2.75;;;5.60;99.90;;;;;;6154344;23;20043;-77
2022/02/21 08:41:35;;;;;;;15.82;2.42;;;5.70;99.90;;;;;;6154745;23;20052;-78
2022/02/21 08:44:01;;;;;;;11.10;2.60;;;5.70;99.90;;;;;;6150646;23;20006;-75
2022/02/21 08:46:30;;;;;;;9.18;2.72;;;5.70;99.90;;;;;;6151207;23;20484;-75
2022/02/21 08:48:59;;;;;;;14.25;3.40;;;5.70;99.90;;;;;;6150773;23;20028;-74
2022/02/21 08:51:28;;;;;;;12.68;2.90;;;5.80;99.90;;;;;;6151617;23;20425;-75
2022/02/21 08:53:57;;;;;;;12.88;2.88;;;5.90;99.90;;;;;;6153855;23;20009;-76
2022/02/21 08:56:22;;;;;;;15.18;2.70;;;5.70;99.90;;;;;;6152155;23;20032;-75
2022/02/21 08:58:51;;;;;;;12.32;3.50;;;5.50;99.90;;;;;;6148572;23;20002;-76
2022/02/21 09:01:17;;;;;;;17.60;3.90;;;5.50;99.90;;;;;;6149624;23;19998;-75
2022/02/21 09:03:45;;;;;;;13.40;2.50;;;5.50;99.90;;;;;;6150911;23;20674;-77
2022/02/21 09:06:15;;;;;;;15.38;3.40;;;5.60;99.90;;;;;;6152882;23;20006;-75
2022/02/21 09:08:40;;;;;;;9.77;3.25;;;5.70;99.90;;;;;;6151167;23;20008;-75
2022/02/21 09:11:09;;;;;;;13.27;2.58;;;5.70;99.90;;;;;;6151031;23;20637;-74
2022/02/21 09:13:35;;;;;;;18.67;3.15;;;5.80;99.90;;;;;;6151930;23;20058;-74
2022/02/21 09:16:01;;;;;;;18.27;3.25;;;5.70;99.90;;;;;;6149595;23;20333;-75
2022/02/21 09:18:26;;;;;;;9.98;2.58;;;5.70;99.90;;;;;;6148591;23;20009;-73
2022/02/21 09:21:00;;;;;;;12.10;3.40;;;5.70;99.90;;;;;;6152227;23;20618;-89
2022/02/21 09:23:26;;;;;;;13.23;3.55;;;5.60;99.90;;;;;;6129629;23;20532;-82
2022/02/21 09:25:55;;;;;;;15.50;2.70;;;5.70;99.90;;;;;;6151684;23;20040;-82
2022/02/21 09:28:21;;;;;;;15.40;3.95;;;5.80;99.90;;;;;;6152059;23;19997;-82
2022/02/21 09:31:03;;;;;;;16.95;3.67;;;5.80;99.90;;;;;;6152832;23;20006;-81
2022/02/21 09:33:29;;;;;;;15.18;2.83;;;5.80;99.90;;;;;;6153533;23;20056;-86
2022/02/21 09:35:58;;;;;;;17.48;3.42;;;5.70;99.90;;;;;;6154360;23;20014;-81
2022/02/21 09:38:24;;;;;;;11.93;3.13;;;5.80;99.90;;;;;;6153086;23;20530;-79
2022/02/21 09:40:55;;;;;;;21.05;3.75;;;5.90;99.90;;;;;;6153049;23;19998;-74
2022/02/21 09:43:35;;;;;;;15.18;3.83;;;5.90;99.90;;;;;;6152386;23;19998;-74
2022/02/21 09:46:04;;;;;;;13.25;3.33;;;5.80;99.90;;;;;;6152303;23;19998;-74
2022/02/21 09:48:31;;;;;;;10.15;3.13;;;5.70;99.90;;;;;;6152510;23;20047;-75
2022/02/21 09:51:04;;;;;;;14.98;3.05;;;5.70;99.90;;;;;;6150967;23;20084;-74
2022/02/21 09:53:34;;;;;;;19.83;3.75;;;5.70;99.90;;;;;;6151569;23;20337;-74
2022/02/21 09:56:00;;;;;;;17.20;3.83;;;5.70;99.90;;;;;;6152497;23;20045;-75
2022/02/21 09:58:35;;;;;;;24.90;3.72;;;5.80;99.90;;;;;;6152384;23;19998;-74
2022/02/21 10:01:01;;;;;;;16.48;5.18;;;5.70;99.90;;;;;;6152693;23;20105;-74
2022/02/21 10:03:36;;;;;;;13.55;3.47;;;5.70;99.90;;;;;;6154323;23;20254;-74
2022/02/21 10:06:24;;;;;;;11.95;3.42;;;5.80;99.90;;;;;;6154364;23;20012;-74
2022/02/21 10:09:04;;;;;;;10.52;3.08;;;5.90;99.90;;;;;;6152479;23;20005;-74
2022/02/21 10:11:35;;;;;;;12.07;3.30;;;6.00;99.90;;;;;;6153729;23;20061;-74
2022/02/21 10:14:04;;;;;;;17.67;3.60;;;5.90;99.90;;;;;;6154428;23;20060;-74
2022/02/21 10:16:45;;;;;;;10.30;3.42;;;6.00;99.90;;;;;;6153586;23;20001;-74
2022/02/21 10:19:14;;;;;;;16.50;3.88;;;6.10;99.90;;;;;;6153395;23;20001;-73
2022/02/21 10:22:01;;;;;;;17.92;3.40;;;6.00;99.90;;;;;;6152678;23;19997;-76
2022/02/21 10:24:30;;;;;;;15.95;3.58;;;6.10;99.90;;;;;;6153930;23;20025;-73
2022/02/21 10:27:04;;;;;;;12.20;3.40;;;6.00;99.90;;;;;;6152219;23;20006;-74
2022/02/21 10:29:30;;;;;;;12.38;3.53;;;6.10;99.90;;;;;;6153520;23;20063;-74
2022/02/21 10:32:07;;;;;;;19.75;4.35;;;6.20;99.90;;;;;;6152530;23;20080;-73
2022/02/21 10:34:36;;;;;;;16.38;3.22;;;6.10;99.90;;;;;;6152048;23;20095;-73
2022/02/21 10:37:05;;;;;;;11.23;3.28;;;6.30;99.90;;;;;;6152754;23;20460;-74
2022/02/21 10:39:31;;;;;;;15.32;3.55;;;6.40;99.90;;;;;;6153115;23;19998;-74
2022/02/21 10:41:57;;;;;;;7.43;2.90;;;6.60;99.90;;;;;;6151834;23;20009;-73
2022/02/21 10:44:31;;;;;;;17.85;4.07;;;6.70;99.90;;;;;;6154032;23;20064;-73
2022/02/21 10:47:05;;;;;;;12.45;3.72;;;6.90;99.90;;;;;;6153186;23;20004;-73
2022/02/21 10:49:32;;;;;;;12.98;3.33;;;6.90;99.90;;;;;;6153140;23;20409;-72
2022/02/21 10:52:00;;;;;;;13.48;3.95;;;7.00;99.90;;;;;;6151972;23;20006;-74
2022/02/21 10:54:36;;;;;;;23.70;3.92;;;7.00;99.90;;;;;;6153557;23;20013;-74
2022/02/21 10:57:06;;;;;;;17.58;3.40;;;7.00;99.90;;;;;;6153916;23;20382;-73
2022/02/21 10:59:32;;;;;;;13.93;3.83;;;6.90;99.90;;;;;;6151955;23;20416;-74
2022/02/21 11:02:01;;;;;;;14.68;3.40;;;6.90;99.90;;;;;;6152895;23;20001;-73
2022/02/21 11:04:27;;;;;;;9.05;3.05;;;6.80;99.90;;;;;;6152106;23;20377;-73
2022/02/21 11:06:55;;;;;;;17.63;4.05;;;6.70;99.90;;;;;;6153768;23;20341;-73
2022/02/21 11:09:25;;;;;;;12.25;2.63;;;6.80;99.90;;;;;;6151640;23;20135;-73
2022/02/21 11:11:51;;;;;;;13.02;3.03;;;6.90;99.90;;;;;;6155840;23;20017;-73
2022/02/21 11:14:27;;;;;;;18.70;4.03;;;6.80;99.90;;;;;;6165619;23;20086;-73
2022/02/21 11:16:58;;;;;;;17.48;3.70;;;6.70;99.90;;;;;;6158878;23;20342;-74
2022/02/21 11:19:27;;;;;;;19.60;4.82;;;6.70;99.90;;;;;;6168698;23;20060;-74
2022/02/21 11:21:54;;;;;;;12.95;3.70;;;6.60;99.90;;;;;;6161428;23;20055;-74
2022/02/21 11:24:32;;;;;;;14.00;3.10;;;6.50;99.90;;;;;;6166543;23;20012;-74
2022/02/21 11:27:37;;;;;;;17.00;3.83;;;6.40;99.90;;;;;;6162009;23;20021;-75
2022/02/21 11:30:14;;;;;;;10.48;3.25;;;6.30;99.90;;;;;;6160748;23;20016;-74
2022/02/21 11:33:03;;;;;;;11.38;3.35;;;6.30;99.90;;;;;;6153698;23;20010;-73
2022/02/21 11:36:02;;;;;;;11.38;3.08;;;6.10;99.90;;;;;;6165612;23;19990;-74
2022/02/21 11:38:29;;;;;;;12.05;3.80;;;6.10;99.90;;;;;;6104150;23;20073;-73
2022/02/21 11:41:00;;;;;;;17.13;3.75;;;6.10;99.90;;;;;;6167743;23;20025;-74
2022/02/21 11:43:44;;;;;;;12.13;3.83;;;6.00;99.90;;;;;;6152676;23;20337;-74
2022/02/21 11:46:22;;;;;;;17.52;4.45;;;6.00;99.90;;;;;;6152988;23;19997;-74
2022/02/21 11:49:06;;;;;;;17.52;3.42;;;6.10;99.90;;;;;;6150951;23;20433;-74
2022/02/21 11:51:34;;;;;;;14.55;3.33;;;6.10;99.90;;;;;;6155138;23;20001;-79
2022/02/21 11:54:09;;;;;;;20.00;3.47;;;6.10;99.90;;;;;;6160680;23;20033;-79
2022/02/21 11:56:50;;;;;;;13.50;3.30;;;6.00;99.90;;;;;;6159055;23;20055;-79
2022/02/21 11:59:22;;;;;;;17.00;4.18;;;5.90;99.90;;;;;;6153217;23;20005;-79
2022/02/21 12:02:06;;;;;;;15.75;4.25;;;5.90;99.90;;;;;;6155460;23;20029;-79
2022/02/21 12:04:57;;;;;;;14.50;4.90;;;5.80;99.90;;;;;;6155564;23;20008;-78
2022/02/21 12:07:42;;;;;;;28.90;11.10;;;5.60;99.90;;;;;;6152849;23;20016;-80
2022/02/21 12:10:25;;;;;;;11.73;3.55;;;5.50;99.90;;;;;;5146217;27;20309;-58
2022/02/21 12:12:55;;;;;;;15.90;3.50;;;5.40;99.90;;;;;;5146055;27;20040;-58
2022/02/21 12:15:22;;;;;;;15.48;3.50;;;5.30;99.90;;;;;;5127411;27;20062;-58
2022/02/21 12:17:59;;;;;;;14.10;3.85;;;5.30;99.90;;;;;;5146250;27;20027;-58
2022/02/21 12:20:28;;;;;;;17.63;3.50;;;5.30;99.90;;;;;;5145518;27;20019;-58
2022/02/21 12:23:11;;;;;;;13.57;3.00;;;5.30;99.90;;;;;;5146016;27;20019;-58
2022/02/21 12:25:41;;;;;;;18.15;4.35;;;5.20;99.90;;;;;;5145375;27;20095;-58
2022/02/21 12:28:13;;;;;;;17.30;3.95;;;5.10;99.90;;;;;;5145268;27;20061;-58
2022/02/21 12:30:41;;;;;;;14.27;3.67;;;4.90;99.90;;;;;;5126868;27;20020;-58
2022/02/21 12:33:09;;;;;;;13.80;3.28;;;4.80;99.90;;;;;;5152073;27;20015;-58
2022/02/21 12:36:07;;;;;;;13.65;3.67;;;4.80;99.90;;;;;;5146907;27;20029;-59
2022/02/21 12:38:38;;;;;;;21.33;3.95;;;4.60;99.90;;;;;;5082700;27;20039;-58
2022/02/21 12:41:08;;;;;;;14.43;3.50;;;4.50;99.90;;;;;;5145646;27;20115;-56
2022/02/21 12:43:54;;;;;;;13.38;3.90;;;4.40;99.90;;;;;;5146054;27;20270;-56
2022/02/21 12:46:22;;;;;;;11.50;3.00;;;4.40;99.90;;;;;;5145118;27;20376;-56
2022/02/21 12:48:48;;;;;;;18.08;4.30;;;4.30;99.90;;;;;;5147091;27;20019;-56
2022/02/21 12:51:22;;;;;;;10.32;4.35;;;4.20;99.90;;;;;;5135208;27;20026;-56
2022/02/21 12:54:08;;;;;;;18.48;3.55;;;4.00;99.90;;;;;;5146191;27;20023;-57
2022/02/21 12:57:04;;;;;;;11.27;3.50;;;3.90;99.90;;;;;;5125504;27;20061;-56
2022/02/21 12:59:35;;;;;;;18.90;4.60;;;3.90;99.90;;;;;;5122310;27;20062;-55
2022/02/21 13:02:11;;;;;;;10.18;3.22;;;3.80;99.90;;;;;;5144077;27;20025;-56